Time;durP1;ratioP1;P1;durP2;ratioP2;P2;SDS_P1;SDS_P2;PMS_P1;PMS_P2;Temp;Humidity;BMP_temperature;BMP_pressure;BME280_temperature;BME280_humidity;BME280_pressure;Samples;Min_cycle;Max_cycle;Signal;HPM_P1;HPM_P2
2023/03/28 00:01:11;;;;;;;0.60;0.60;;;;;;;9.13;25.68;101055.81;5014686;28;20053;-74
2023/03/28 00:03:39;;;;;;;0.88;0.70;;;;;;;9.10;25.56;101055.50;5034291;28;20068;-74
2023/03/28 00:06:15;;;;;;;0.50;0.50;;;;;;;9.13;24.00;101077.66;5034216;28;20049;-74
2023/03/28 00:08:44;;;;;;;1.02;0.63;;;;;;;8.95;23.86;101075.28;5034310;28;20064;-74
2023/03/28 00:11:18;;;;;;;3.58;0.70;;;;;;;8.83;26.39;101086.34;5032877;28;20058;-74
2023/03/28 00:13:56;;;;;;;;;;;;;;;8.78;25.17;101089.84;5034560;28;20042;-74
2023/03/28 00:16:30;;;;;;;0.52;0.52;;;;;;;8.64;24.67;101088.59;5034029;28;19928;-74
2023/03/28 00:19:02;;;;;;;2.90;0.63;;;;;;;8.51;26.00;101090.56;5034066;28;20046;-74
2023/03/28 00:21:32;;;;;;;0.88;0.47;;;;;;;8.48;25.90;101104.72;5033558;28;20056;-74
2023/03/28 00:24:03;;;;;;;0.50;0.50;;;;;;;8.41;26.36;101115.00;5034128;28;20056;-74
2023/03/28 00:26:34;;;;;;;1.00;0.70;;;;;;;8.30;27.82;101108.56;5032588;28;20046;-74
2023/03/28 00:29:05;;;;;;;1.13;0.77;;;;;;;8.28;26.44;101116.19;5033943;28;20068;-74
2023/03/28 00:31:35;;;;;;;0.50;0.50;;;;;;;8.21;26.00;101124.53;5033586;28;20057;-74
2023/03/28 00:34:05;;;;;;;1.48;1.05;;;;;;;8.13;27.26;101120.34;5032663;28;20057;-74
2023/03/28 00:36:33;;;;;;;0.88;0.80;;;;;;;7.99;28.95;101122.59;5032511;28;20057;-74
2023/03/28 00:39:05;;;;;;;2.38;1.08;;;;;;;7.84;27.81;101125.91;5032176;28;20396;-74
2023/03/28 00:41:41;;;;;;;1.90;0.80;;;;;;;7.78;29.13;101126.91;5033359;28;20040;-74
2023/03/28 00:44:42;;;;;;;0.88;0.88;;;;;;;7.55;28.31;101134.13;5033607;28;20064;-74
2023/03/28 00:47:42;;;;;;;0.68;0.68;;;;;;;7.62;29.01;101132.06;5033682;28;20053;-74
2023/03/28 00:50:33;;;;;;;0.70;0.50;;;;;;;7.57;30.19;101136.63;5033039;28;20049;-74
2023/03/28 00:53:07;;;;;;;0.60;0.50;;;;;;;7.45;30.22;101129.34;5033345;28;20045;-74
2023/03/28 00:55:48;;;;;;;0.85;0.57;;;;;;;7.38;30.68;101136.84;5033529;28;20057;-74
2023/03/28 00:58:23;;;;;;;0.30;0.30;;;;;;;7.30;29.98;101140.78;5033332;28;20045;-74
2023/03/28 01:00:54;;;;;;;2.53;0.52;;;;;;;7.20;32.42;101135.13;5032139;28;20456;-74
2023/03/28 01:03:27;;;;;;;0.73;0.60;;;;;;;7.10;31.05;101141.22;5036190;28;20045;-74
2023/03/28 01:05:56;;;;;;;0.77;0.63;;;;;;;7.14;31.11;101145.13;5033155;28;20045;-73
2023/03/28 01:08:38;;;;;;;1.23;0.75;;;;;;;7.20;30.41;101151.47;5048637;28;20412;-73
2023/03/28 01:11:06;;;;;;;1.17;0.50;;;;;;;7.17;29.09;101160.94;5033185;28;20397;-74
2023/03/28 01:13:40;;;;;;;3.38;0.70;;;;;;;7.24;30.26;101158.09;5030727;28;20041;-74
2023/03/28 01:16:10;;;;;;;0.98;0.60;;;;;;;7.21;29.32;101170.28;5031583;28;20049;-74
2023/03/28 01:18:40;;;;;;;0.47;0.47;;;;;;;7.29;27.70;101176.41;5031715;28;20049;-74
2023/03/28 01:21:14;;;;;;;0.38;0.38;;;;;;;7.29;29.92;101168.25;5048346;28;20682;-74
2023/03/28 01:24:14;;;;;;;0.70;0.60;;;;;;;7.20;29.16;101171.38;5044812;28;20050;-74
2023/03/28 01:27:09;;;;;;;1.92;0.80;;;;;;;7.19;28.36;101175.13;5044902;28;20053;-74
2023/03/28 01:30:00;;;;;;;0.80;0.63;;;;;;;7.15;29.11;101179.44;5051750;28;20503;-74
2023/03/28 01:32:57;;;;;;;1.02;0.43;;;;;;;7.08;30.78;101182.28;5031310;28;20048;-74
2023/03/28 01:35:41;;;;;;;0.88;0.70;;;;;;;7.03;28.73;101189.53;5032752;28;20046;-74
2023/03/28 01:38:35;;;;;;;0.67;0.60;;;;;;;7.16;29.54;101191.97;5031429;28;20492;-74
2023/03/28 01:41:21;;;;;;;0.85;0.60;;;;;;;7.12;29.12;101188.91;5032563;28;20049;-73
2023/03/28 01:43:58;;;;;;;1.52;0.57;;;;;;;7.15;28.11;101203.09;5047920;28;20049;-74
2023/03/28 01:46:50;;;;;;;0.85;0.85;;;;;;;7.17;29.45;101192.78;5032575;28;20053;-74
2023/03/28 01:49:51;;;;;;;1.40;0.77;;;;;;;7.11;28.32;101210.91;5032498;28;20049;-73
2023/03/28 01:52:34;;;;;;;0.65;0.65;;;;;;;7.00;30.91;101204.44;5041106;28;20416;-74
2023/03/28 01:55:23;;;;;;;3.95;0.80;;;;;;;6.97;29.00;101204.91;5031152;28;20503;-74
2023/03/28 01:58:05;;;;;;;0.88;0.50;;;;;;;6.91;29.69;101200.44;5014741;28;20050;-74
2023/03/28 02:00:49;;;;;;;1.00;0.60;;;;;;;6.81;30.70;101212.75;5030499;28;20049;-74
2023/03/28 02:03:32;;;;;;;0.47;0.47;;;;;;;6.69;32.69;101203.75;5030906;28;20050;-74
2023/03/28 02:06:08;;;;;;;0.73;0.50;;;;;;;6.59;31.19;101209.81;5030749;28;20048;-73
2023/03/28 02:08:39;;;;;;;0.65;0.55;;;;;;;6.52;30.51;101203.66;5047579;28;20045;-73
2023/03/28 02:11:30;;;;;;;0.77;0.47;;;;;;;6.78;28.35;101212.38;5040570;28;20057;-73
2023/03/28 02:14:18;;;;;;;0.60;0.50;;;;;;;6.93;29.42;101214.59;5030599;28;20489;-74
2023/03/28 02:17:05;;;;;;;0.63;0.63;;;;;;;6.86;30.74;101220.19;5030842;28;20045;-74
2023/03/28 02:19:36;;;;;;;0.57;0.50;;;;;;;6.78;30.81;101226.00;5032360;28;20042;-74
2023/03/28 02:22:25;;;;;;;1.73;0.40;;;;;;;6.64;30.97;101223.53;5031788;28;20046;-74
2023/03/28 02:25:20;;;;;;;3.78;0.68;;;;;;;6.51;31.41;101221.06;5031715;28;20061;-74
2023/03/28 02:28:00;;;;;;;0.57;0.50;;;;;;;6.48;32.96;101225.06;5023589;28;20526;-74
2023/03/28 02:30:36;;;;;;;1.17;0.80;;;;;;;6.34;32.47;101227.19;5031790;28;20053;-74
2023/03/28 02:33:10;;;;;;;1.52;0.47;;;;;;;6.35;32.34;101228.03;5043663;28;20046;-74
2023/03/28 02:35:58;;;;;;;0.88;0.85;;;;;;;6.38;31.39;101231.09;5043798;28;20053;-74
2023/03/28 02:38:54;;;;;;;0.60;0.60;;;;;;;6.42;32.60;101228.75;5043772;28;20045;-73
2023/03/28 02:41:41;;;;;;;0.85;0.57;;;;;;;6.35;33.02;101239.72;5010941;28;20397;-73
2023/03/28 02:44:15;;;;;;;0.70;0.70;;;;;;;6.27;34.94;101229.19;5010814;28;20053;-74
2023/03/28 02:47:25;;;;;;;0.45;0.45;;;;;;;6.25;31.79;101236.78;5027307;28;20050;-73
2023/03/28 02:50:05;;;;;;;1.73;0.75;;;;;;;6.23;34.29;101238.88;5010929;28;20050;-74
2023/03/28 02:52:54;;;;;;;0.43;0.30;;;;;;;6.32;31.57;101237.47;5053614;28;20050;-74
2023/03/28 02:55:37;;;;;;;0.50;0.30;;;;;;;6.39;31.45;101237.34;5031404;28;20060;-74
2023/03/28 02:58:28;;;;;;;0.65;0.50;;;;;;;6.37;31.67;101245.75;5030444;28;20051;-74
2023/03/28 03:00:56;;;;;;;1.45;0.40;;;;;;;6.29;32.49;101241.50;5030466;28;20045;-74
2023/03/28 03:03:24;;;;;;;0.40;0.40;;;;;;;6.10;32.51;101226.34;5031353;28;20049;-74
2023/03/28 03:05:53;;;;;;;0.50;0.45;;;;;;;6.07;33.21;101243.94;5030315;28;20060;-74
2023/03/28 03:08:21;;;;;;;0.65;0.43;;;;;;;6.03;33.25;101245.47;5046994;28;20034;-74
2023/03/28 03:10:49;;;;;;;0.63;0.63;;;;;;;5.99;32.56;101241.53;5031584;28;20512;-74
2023/03/28 03:13:18;;;;;;;4.60;0.70;;;;;;;5.88;33.53;101245.88;5045613;28;20046;-74
2023/03/28 03:15:46;;;;;;;1.20;0.60;;;;;;;5.90;34.40;101247.28;5035343;28;20045;-74
2023/03/28 03:18:24;;;;;;;2.47;0.98;;;;;;;5.99;32.89;101246.94;5049203;28;20049;-74
2023/03/28 03:20:52;;;;;;;0.85;0.50;;;;;;;5.92;33.16;101245.16;5050566;28;20054;-74
2023/03/28 03:23:20;;;;;;;0.50;0.50;;;;;;;5.95;33.89;101265.59;5034925;28;20045;-74
2023/03/28 03:25:49;;;;;;;2.20;1.10;;;;;;;5.92;33.71;101257.94;5035091;28;20044;-74
2023/03/28 03:28:22;;;;;;;1.40;0.70;;;;;;;5.84;34.30;101259.09;5034012;28;20052;-74
2023/03/28 03:30:52;;;;;;;0.32;0.32;;;;;;;5.87;34.34;101264.03;5035074;28;20045;-74
2023/03/28 03:33:53;;;;;;;0.73;0.50;;;;;;;5.90;33.21;101269.03;5049926;28;20488;-74
2023/03/28 03:36:25;;;;;;;1.65;0.50;;;;;;;5.87;34.25;101263.22;5049983;28;20048;-74
2023/03/28 03:38:54;;;;;;;0.65;0.57;;;;;;;5.79;34.33;101277.97;5038369;28;20037;-74
2023/03/28 03:41:23;;;;;;;0.85;0.63;;;;;;;5.86;33.31;101270.53;5051597;28;20060;-73
2023/03/28 03:43:51;;;;;;;0.85;0.63;;;;;;;5.84;34.45;101264.53;5034754;28;20049;-74
2023/03/28 03:46:19;;;;;;;0.55;0.55;;;;;;;5.80;34.48;101268.75;5033179;28;20037;-73
2023/03/28 03:48:49;;;;;;;0.70;0.70;;;;;;;5.75;35.87;101265.91;5033533;28;20038;-74
2023/03/28 03:51:17;;;;;;;0.68;0.68;;;;;;;5.70;36.07;101274.75;5034227;28;20056;-73
2023/03/28 03:53:49;;;;;;;1.90;0.80;;;;;;;5.73;33.99;101274.25;5033427;28;20041;-74
2023/03/28 03:56:20;;;;;;;1.00;0.70;;;;;;;5.77;34.59;101275.47;5033401;28;20041;-74
2023/03/28 03:58:53;;;;;;;2.38;0.50;;;;;;;5.77;34.70;101277.38;5049789;28;20049;-74
2023/03/28 04:01:24;;;;;;;0.70;0.70;;;;;;;5.69;35.89;101283.13;5032779;28;20042;-74
2023/03/28 04:03:55;;;;;;;1.77;0.55;;;;;;;5.64;35.98;101289.25;5033072;28;20041;-74
2023/03/28 04:06:33;;;;;;;1.75;0.85;;;;;;;5.58;35.78;101287.44;5033250;28;20492;-74
2023/03/28 04:09:07;;;;;;;1.10;0.90;;;;;;;5.56;35.73;101287.66;5033201;28;20365;-74
2023/03/28 04:11:52;;;;;;;1.65;1.10;;;;;;;5.52;35.98;101289.16;5032712;28;20041;-74
2023/03/28 04:14:21;;;;;;;1.02;1.02;;;;;;;5.51;37.31;101288.34;5049322;28;20053;-74
2023/03/28 04:16:52;;;;;;;2.33;1.02;;;;;;;5.55;37.12;101293.31;5032829;28;20045;-73
2023/03/28 04:19:23;;;;;;;1.45;0.88;;;;;;;5.56;37.01;101298.53;5032787;28;20809;-73
2023/03/28 04:21:51;;;;;;;1.17;1.05;;;;;;;5.55;37.34;101305.00;5033039;28;20408;-74
2023/03/28 04:24:25;;;;;;;1.23;0.93;;;;;;;5.49;37.53;101311.34;5033609;28;20060;-73
2023/03/28 04:27:19;;;;;;;1.27;1.20;;;;;;;5.50;38.56;101303.00;5033509;28;20048;-73
2023/03/28 04:29:48;;;;;;;1.70;1.00;;;;;;;5.69;38.01;101310.28;5032872;28;20061;-73
2023/03/28 04:32:36;;;;;;;2.92;1.20;;;;;;;5.87;36.04;101321.09;5049337;28;20057;-74
2023/03/28 04:35:07;;;;;;;1.13;0.77;;;;;;;5.95;35.49;101324.56;5032116;28;20041;-74
2023/03/28 04:37:36;;;;;;;3.13;0.88;;;;;;;5.87;35.55;101321.09;5028505;28;20045;-74
2023/03/28 04:40:10;;;;;;;1.48;1.00;;;;;;;5.91;37.09;101319.59;5012886;28;20045;-74
2023/03/28 04:42:47;;;;;;;1.88;1.30;;;;;;;5.98;39.69;101316.78;4996969;28;20532;-83
2023/03/28 04:45:19;;;;;;;1.02;1.00;;;;;;;7.13;46.22;101313.03;5014310;28;20046;-84
2023/03/28 04:47:48;;;;;;;1.77;1.27;;;;;;;8.27;40.88;101313.59;5032355;28;20041;-84
2023/03/28 04:50:18;;;;;;;1.40;0.90;;;;;;;9.09;38.90;101313.25;5049040;28;20042;-84
2023/03/28 04:52:49;;;;;;;3.55;1.13;;;;;;;9.52;33.98;101316.25;5039517;28;20396;-84
2023/03/28 04:55:18;;;;;;;2.17;1.83;;;;;;;9.95;34.61;101322.78;5044084;28;20527;-84
2023/03/28 04:57:48;;;;;;;4.32;1.30;;;;;;;10.18;34.79;101328.19;5032465;28;20049;-84
2023/03/28 05:00:21;;;;;;;2.78;1.30;;;;;;;10.16;34.45;101317.50;5034820;28;20049;-84
2023/03/28 05:03:03;;;;;;;;;;;;;;;10.31;34.50;101326.94;5017754;28;20037;-84
2023/03/28 05:05:44;;;;;;;3.03;1.00;;;;;;;10.17;34.04;101318.31;5049137;28;19932;-84
2023/03/28 05:08:15;;;;;;;2.88;1.58;;;;;;;10.18;34.46;101334.47;5033091;28;20048;-79
2023/03/28 05:10:45;;;;;;;4.28;1.25;;;;;;;10.17;34.08;101343.75;5032340;28;20041;-76
2023/03/28 05:13:14;;;;;;;2.28;1.27;;;;;;;9.93;34.47;101345.97;5031628;28;20052;-78
2023/03/28 05:15:48;;;;;;;2.28;1.30;;;;;;;9.86;35.08;101343.44;5032074;28;20041;-78
2023/03/28 05:18:39;;;;;;;5.63;1.38;;;;;;;9.70;35.04;101344.34;5032766;28;20388;-77
2023/03/28 05:21:08;;;;;;;1.65;1.20;;;;;;;9.58;35.08;101336.28;5032044;28;20049;-78
2023/03/28 05:23:36;;;;;;;3.40;1.65;;;;;;;9.28;34.16;101347.38;5031780;28;20419;-78
2023/03/28 05:26:13;;;;;;;3.90;0.90;;;;;;;9.49;33.69;101344.91;5065010;28;20057;-77
2023/03/28 05:28:41;;;;;;;1.35;1.02;;;;;;;9.44;34.59;101335.81;5065028;28;20049;-77
2023/03/28 05:31:10;;;;;;;1.63;0.73;;;;;;;9.61;35.04;101336.59;5036496;28;20499;-77
2023/03/28 05:33:38;;;;;;;4.35;1.42;;;;;;;9.66;35.06;101354.94;5031758;28;20049;-76
2023/03/28 05:36:06;;;;;;;1.35;1.10;;;;;;;9.57;34.72;101351.84;5047325;28;20049;-77
2023/03/28 05:38:35;;;;;;;5.47;1.55;;;;;;;9.34;34.11;101356.47;5032698;28;20049;-77
2023/03/28 05:41:10;;;;;;;2.30;1.23;;;;;;;9.40;35.11;101349.97;5040231;28;20060;-77
2023/03/28 05:43:38;;;;;;;3.28;1.75;;;;;;;9.60;35.92;101364.16;5030517;28;20061;-77
2023/03/28 05:46:06;;;;;;;2.65;1.60;;;;;;;9.84;36.31;101383.88;5043249;28;20034;-77
2023/03/28 05:48:41;;;;;;;3.88;1.20;;;;;;;9.27;35.46;101380.41;5048116;28;20068;-79
2023/03/28 05:51:17;;;;;;;2.55;1.20;;;;;;;9.05;36.14;101383.09;5031460;28;20052;-79
2023/03/28 05:53:45;;;;;;;3.22;1.20;;;;;;;9.14;36.11;101387.88;5033656;28;20041;-85
2023/03/28 05:56:17;;;;;;;3.88;1.50;;;;;;;9.05;35.74;101383.91;5064643;28;20048;-86
2023/03/28 05:58:47;;;;;;;1.13;0.93;;;;;;;9.19;36.21;101380.84;5032327;28;20492;-86
2023/03/28 06:01:16;;;;;;;3.30;1.17;;;;;;;9.26;35.79;101386.94;5030681;28;20765;-86
2023/03/28 06:03:50;;;;;;;2.70;1.20;;;;;;;9.17;35.92;101386.53;5064990;28;20056;-86
2023/03/28 06:06:19;;;;;;;2.53;1.25;;;;;;;8.99;34.78;101387.63;5032525;28;20052;-85
2023/03/28 06:08:47;;;;;;;3.05;1.30;;;;;;;9.39;35.26;101405.69;5019219;28;20056;-94
2023/03/28 06:11:41;;;;;;;2.00;0.90;;;;;;;9.51;34.43;101404.78;6013456;22;20023;31
2023/03/28 06:14:10;;;;;;;3.00;1.25;;;;;;;9.55;34.62;101400.47;4974434;28;20062;-87
2023/03/28 06:16:40;;;;;;;1.27;1.10;;;;;;;9.57;33.50;101403.75;4973289;28;20058;-86
2023/03/28 06:19:08;;;;;;;4.60;1.10;;;;;;;9.54;33.06;101407.00;4973130;28;20058;-89
2023/03/28 06:21:50;;;;;;;0.80;0.68;;;;;;;9.82;32.56;101402.44;4959270;28;20051;-87
2023/03/28 06:24:18;;;;;;;2.30;0.85;;;;;;;9.75;33.17;101413.56;4953726;29;20055;-91
2023/03/28 06:26:46;;;;;;;1.27;0.63;;;;;;;9.84;33.46;101416.69;4985359;28;20047;-91
2023/03/28 06:29:18;;;;;;;2.05;0.95;;;;;;;9.99;33.44;101409.75;4984576;28;20414;-88
2023/03/28 06:31:48;;;;;;;2.58;0.90;;;;;;;10.06;31.82;101413.94;4975948;28;20055;-93
2023/03/28 06:34:18;;;;;;;2.38;0.80;;;;;;;10.15;32.36;101414.31;4968772;28;20061;-89
2023/03/28 06:36:55;;;;;;;2.38;1.00;;;;;;;10.28;31.22;101425.94;4937301;29;20055;-95
2023/03/28 06:39:27;;;;;;;1.73;0.88;;;;;;;10.25;32.04;101415.47;4956021;28;20051;-93
2023/03/28 06:41:58;;;;;;;1.25;1.15;;;;;;;10.50;32.62;101438.78;4973529;28;20058;-94
2023/03/28 06:44:35;;;;;;;1.80;1.33;;;;;;;10.54;32.32;101434.41;4972501;28;20501;-94
2023/03/28 06:47:40;;;;;;;1.75;1.10;;;;;;;10.59;32.04;101438.06;5011631;28;20053;-89
2023/03/28 06:50:09;;;;;;;2.05;1.13;;;;;;;10.82;32.49;101459.88;4992768;28;20049;-86
2023/03/28 06:52:50;;;;;;;2.78;1.45;;;;;;;10.95;32.65;101451.22;5027970;28;20057;-95
2023/03/28 06:55:25;;;;;;;1.30;1.00;;;;;;;11.00;31.32;101459.50;5003306;28;20408;-91
2023/03/28 06:57:55;;;;;;;2.67;1.42;;;;;;;11.07;31.93;101448.31;4981031;28;20046;-84
2023/03/28 07:00:30;;;;;;;2.97;1.17;;;;;;;11.15;29.02;101467.00;4998221;28;20050;-96
2023/03/28 07:03:18;;;;;;;1.05;0.80;;;;;;;11.47;30.41;101467.22;4996603;28;20416;-90
2023/03/28 07:05:46;;;;;;;3.22;1.45;;;;;;;11.71;30.43;101467.66;5009674;28;20038;-88
2023/03/28 07:08:15;;;;;;;1.05;0.93;;;;;;;11.85;29.64;101476.22;5008710;28;20068;-87
2023/03/28 07:10:43;;;;;;;2.75;1.10;;;;;;;12.01;29.66;101487.25;5013979;28;20045;-85
2023/03/28 07:13:12;;;;;;;1.15;0.98;;;;;;;12.00;29.97;101491.94;5030213;28;20046;-93
2023/03/28 07:19:00;;;;;;;7.03;1.40;;;;;;;12.23;30.03;101506.34;4994099;28;20050;-81
2023/03/28 07:21:32;;;;;;;1.35;0.95;;;;;;;12.38;31.22;101504.72;4996932;28;20046;-91
2023/03/28 07:24:03;;;;;;;1.95;1.40;;;;;;;12.55;31.18;101502.59;5007229;28;20054;-82
2023/03/28 07:26:58;;;;;;;1.98;1.05;;;;;;;12.72;30.12;101504.28;4998476;28;20045;-88
2023/03/28 07:29:42;;;;;;;1.25;1.15;;;;;;;12.77;29.49;101509.78;4984094;28;20053;-92
2023/03/28 07:32:11;;;;;;;2.80;0.88;;;;;;;12.75;29.67;101514.69;4996037;28;20068;-92
2023/03/28 07:34:39;;;;;;;2.13;0.80;;;;;;;12.74;29.82;101507.56;4997398;28;20054;-91
2023/03/28 07:37:16;;;;;;;2.40;1.10;;;;;;;12.82;29.55;101523.53;4996927;28;20057;-92
2023/03/28 07:40:09;;;;;;;1.20;0.93;;;;;;;12.92;26.91;101524.63;4983645;28;20397;-85
2023/03/28 07:42:39;;;;;;;1.95;1.05;;;;;;;13.17;28.81;101519.16;4995914;28;20085;-90
2023/03/28 07:45:11;;;;;;;2.28;0.90;;;;;;;13.37;29.29;101522.16;4993982;28;20464;-84
2023/03/28 07:47:51;;;;;;;1.35;0.57;;;;;;;13.47;29.86;101527.69;4988308;28;20057;-88
2023/03/28 07:50:21;;;;;;;1.20;0.90;;;;;;;13.49;28.85;101530.19;5012865;28;20683;-85
2023/03/28 07:52:58;;;;;;;1.13;0.65;;;;;;;13.51;27.62;101534.31;5012698;28;20065;-92
2023/03/28 07:55:35;;;;;;;1.42;0.75;;;;;;;13.57;27.07;101535.94;4990136;28;20050;-91
2023/03/28 07:58:23;;;;;;;1.08;0.70;;;;;;;13.57;27.76;101535.94;4997905;28;20053;-90
2023/03/28 08:01:03;;;;;;;1.40;0.52;;;;;;;13.68;28.52;101539.50;4979883;28;20050;-96
2023/03/28 08:03:41;;;;;;;1.73;0.73;;;;;;;13.81;26.15;101551.03;4984633;28;20061;-92
2023/03/28 08:06:12;;;;;;;0.65;0.60;;;;;;;13.77;27.32;101550.75;5028247;28;20042;-85
2023/03/28 08:08:59;;;;;;;3.22;1.00;;;;;;;13.88;27.57;101556.25;4994538;28;20685;-91
2023/03/28 08:11:46;;;;;;;0.90;0.88;;;;;;;13.93;24.59;101567.25;4977198;28;20053;-92
2023/03/28 08:14:16;;;;;;;1.10;1.00;;;;;;;13.64;23.56;101565.09;4976394;28;20130;-89
2023/03/28 08:16:54;;;;;;;1.08;0.60;;;;;;;13.86;25.33;101562.03;5007974;28;20050;-86
2023/03/28 08:19:22;;;;;;;0.57;0.30;;;;;;;13.89;23.48;101555.94;4974013;28;20046;-88
2023/03/28 08:22:20;;;;;;;0.50;0.50;;;;;;;14.03;24.48;101567.19;4984073;28;20042;-93
2023/03/28 08:25:28;;;;;;;0.60;0.47;;;;;;;14.00;21.96;101558.69;5006495;28;20054;-92
2023/03/28 08:27:57;;;;;;;0.60;0.60;;;;;;;13.91;22.80;101564.78;4987280;28;20541;-91
2023/03/28 08:30:25;;;;;;;0.52;0.47;;;;;;;14.14;25.87;101562.50;4991211;28;20493;-92
2023/03/28 08:32:58;;;;;;;0.40;0.40;;;;;;;14.07;23.36;101567.47;4965660;28;20041;-90
2023/03/28 08:35:26;;;;;;;0.85;0.65;;;;;;;14.20;24.11;101569.66;4979919;28;20059;-91
2023/03/28 08:37:58;;;;;;;2.22;0.50;;;;;;;14.32;25.64;101574.81;4980169;28;20053;-92
2023/03/28 08:40:28;;;;;;;0.80;0.80;;;;;;;14.22;22.64;101580.34;4980336;28;20045;-91
2023/03/28 08:43:23;;;;;;;0.52;0.52;;;;;;;14.43;25.98;101577.53;4995653;28;20065;-89
2023/03/28 08:45:55;;;;;;;0.77;0.73;;;;;;;14.39;24.31;101580.03;5023634;28;20600;-92
2023/03/28 08:48:51;;;;;;;1.25;0.90;;;;;;;14.15;27.05;101569.66;4992218;28;20049;-91
2023/03/28 08:51:56;;;;;;;1.10;1.00;;;;;;;14.10;27.79;101569.69;4975661;28;20049;-90
2023/03/28 08:54:25;;;;;;;;;;;;;;;14.13;27.26;101580.09;5000987;28;20046;-91
2023/03/28 08:57:01;;;;;;;3.60;1.60;;;;;;;14.44;27.45;101577.28;5009941;28;19932;-90
2023/03/28 08:59:54;;;;;;;1.92;1.38;;;;;;;14.32;25.99;101576.78;5001720;28;20054;-86
2023/03/28 09:02:28;;;;;;;1.73;0.95;;;;;;;14.48;26.62;101566.50;4959626;28;20046;-84
2023/03/28 09:04:57;;;;;;;;;;;;;;;14.38;26.18;101568.19;4991978;28;20054;-85
2023/03/28 09:08:35;;;;;;;2.83;1.08;;;;;;;14.69;27.13;101570.00;5012357;28;19987;-91
2023/03/28 09:11:25;;;;;;;2.50;1.17;;;;;;;14.59;25.81;101570.03;4988011;28;20049;-91
2023/03/28 09:14:27;;;;;;;1.95;1.00;;;;;;;14.83;26.05;101574.91;5013044;28;20420;-91
2023/03/28 09:17:04;;;;;;;4.63;1.08;;;;;;;14.89;25.95;101577.34;4989844;28;20397;-90
2023/03/28 09:19:50;;;;;;;1.38;0.90;;;;;;;14.77;26.17;101569.41;4967940;28;20058;-82
2023/03/28 09:22:58;;;;;;;1.10;0.88;;;;;;;14.88;25.85;101575.72;4983628;28;20034;-88
2023/03/28 09:25:45;;;;;;;1.30;1.08;;;;;;;14.78;24.95;101560.03;4991712;28;20073;-85
2023/03/28 09:28:37;;;;;;;3.70;0.90;;;;;;;14.77;25.06;101569.41;5007182;28;20046;-85
2023/03/28 09:31:10;;;;;;;2.88;1.23;;;;;;;14.80;25.39;101575.47;4997873;28;20496;-84
2023/03/28 09:33:42;;;;;;;2.15;0.95;;;;;;;14.81;22.51;101574.38;5010283;28;20053;-90
2023/03/28 09:36:19;;;;;;;;;;;;;;;15.14;21.61;101585.72;4999570;28;20054;-91
2023/03/28 09:38:57;;;;;;;0.80;0.80;;;;;;;14.89;20.18;101577.34;4991222;28;19921;-90
2023/03/28 09:41:51;;;;;;;0.68;0.68;;;;;;;15.08;21.60;101589.63;4990933;28;20517;-90
2023/03/28 09:44:44;;;;;;;0.93;0.93;;;;;;;14.58;21.06;101576.66;5003470;28;20057;-90
2023/03/28 09:47:43;;;;;;;1.70;0.80;;;;;;;15.01;20.90;101582.50;5005873;28;20037;-89
2023/03/28 09:50:16;;;;;;;1.10;1.00;;;;;;;15.14;21.31;101577.44;5009915;28;20038;-88
2023/03/28 09:52:52;;;;;;;1.23;1.00;;;;;;;15.19;25.28;101577.41;4994438;28;20054;-89
2023/03/28 09:55:26;;;;;;;2.20;0.98;;;;;;;15.38;21.75;101582.25;5007824;28;20414;-89
2023/03/28 09:58:00;;;;;;;1.85;0.70;;;;;;;15.47;22.16;101574.16;4975231;28;20401;-87
2023/03/28 10:00:33;;;;;;;1.15;0.52;;;;;;;15.62;19.46;101587.00;5007687;28;20038;-88
2023/03/28 10:03:33;;;;;;;0.85;0.60;;;;;;;15.59;21.22;101580.97;4992479;28;20802;-89
2023/03/28 10:06:26;;;;;;;0.93;0.65;;;;;;;15.73;20.64;101585.81;4991321;28;20056;-88
2023/03/28 10:09:19;;;;;;;1.25;0.50;;;;;;;15.78;20.75;101587.72;5019099;28;20049;-89
2023/03/28 10:12:00;;;;;;;0.60;0.60;;;;;;;15.72;19.81;101586.91;4997937;28;20054;-88
2023/03/28 10:14:34;;;;;;;1.70;0.50;;;;;;;15.78;20.35;101588.50;5010990;28;20050;-88
2023/03/28 10:17:15;;;;;;;2.60;0.65;;;;;;;15.89;18.47;101585.66;5009903;28;20046;-91
2023/03/28 10:19:48;;;;;;;3.92;1.00;;;;;;;15.94;25.73;101571.84;5002372;28;20050;-87
2023/03/28 10:22:26;;;;;;;2.17;1.50;;;;;;;15.91;26.27;101572.38;5004444;28;20041;-86
2023/03/28 10:24:57;;;;;;;5.47;1.70;;;;;;;15.77;27.44;101575.84;5008279;28;20540;-86
2023/03/28 10:27:33;;;;;;;5.10;1.75;;;;;;;15.71;25.92;101572.31;5008308;28;20052;-87
2023/03/28 10:30:22;;;;;;;2.00;1.23;;;;;;;15.95;25.91;101582.59;5008054;28;20045;-87
2023/03/28 10:33:23;;;;;;;1.65;0.95;;;;;;;15.95;22.51;101576.25;5009970;28;20054;-87
2023/03/28 10:36:09;;;;;;;1.63;0.90;;;;;;;16.15;21.76;101577.13;5010284;28;20046;-88
2023/03/28 10:38:42;;;;;;;0.73;0.70;;;;;;;15.92;19.36;101572.13;5010024;28;20045;-87
2023/03/28 10:41:29;;;;;;;1.27;0.70;;;;;;;16.14;18.18;101581.00;5010088;28;20049;-87
2023/03/28 10:44:24;;;;;;;0.80;0.80;;;;;;;16.46;20.19;101577.59;5010223;28;20054;-87
2023/03/28 10:47:04;;;;;;;0.38;0.38;;;;;;;16.33;21.10;101579.13;5007193;28;20046;-86
2023/03/28 10:49:54;;;;;;;0.68;0.52;;;;;;;16.31;18.58;101564.78;5005191;28;20046;-86
2023/03/28 10:52:45;;;;;;;1.60;0.70;;;;;;;16.50;18.88;101581.41;4992005;28;20050;-85
2023/03/28 10:55:39;;;;;;;0.55;0.55;;;;;;;16.35;18.06;101565.03;5001248;28;20045;-84
2023/03/28 10:58:42;;;;;;;0.80;0.40;;;;;;;16.51;18.01;101573.94;4989578;28;20050;-84
2023/03/28 11:01:21;;;;;;;0.95;0.63;;;;;;;16.60;17.84;101576.84;5004721;28;20042;-83
2023/03/28 11:04:46;;;;;;;0.40;0.32;;;;;;;16.89;17.64;101568.44;5010204;28;20049;-83
2023/03/28 11:07:42;;;;;;;1.02;0.70;;;;;;;16.84;18.02;101551.94;5010078;28;20038;-85
2023/03/28 11:11:10;;;;;;;0.32;0.32;;;;;;;17.05;19.51;101568.22;4981889;28;20516;-84
2023/03/28 11:14:07;;;;;;;0.40;0.40;;;;;;;17.00;19.78;101573.81;4989609;28;20069;-84
2023/03/28 11:16:42;;;;;;;0.45;0.35;;;;;;;16.74;18.23;101563.97;5006460;28;20532;-82
2023/03/28 11:19:53;;;;;;;0.30;0.30;;;;;;;16.95;18.46;101565.63;4997945;28;20416;-83
2023/03/28 11:22:41;;;;;;;0.57;0.57;;;;;;;17.14;17.93;101569.22;5009770;28;20052;-81
2023/03/28 11:25:48;;;;;;;2.28;0.85;;;;;;;17.12;18.50;101568.69;5009979;28;20049;-82
2023/03/28 11:29:02;;;;;;;0.50;0.50;;;;;;;16.95;19.30;101560.09;4995668;28;20042;-82
2023/03/28 11:31:50;;;;;;;0.52;0.40;;;;;;;17.11;17.03;101558.72;4960790;28;20061;-82
2023/03/28 11:34:26;;;;;;;0.43;0.43;;;;;;;17.43;16.62;101550.75;5014146;28;20054;-81
2023/03/28 11:37:04;;;;;;;1.38;0.80;;;;;;;17.42;19.65;101549.13;5027203;28;20476;-82
2023/03/28 11:39:57;;;;;;;1.83;0.85;;;;;;;17.38;16.68;101539.78;5013994;28;20054;-81
2023/03/28 11:42:46;;;;;;;2.92;0.70;;;;;;;17.55;17.51;101536.47;5012946;28;20045;-82
2023/03/28 11:45:29;;;;;;;0.50;0.50;;;;;;;17.72;19.25;101541.41;5013228;28;20064;-81
2023/03/28 11:48:24;;;;;;;0.90;0.63;;;;;;;17.86;19.79;101555.25;5012642;28;20034;-82
2023/03/28 11:51:03;;;;;;;2.38;0.60;;;;;;;17.94;19.10;101535.16;5013497;28;20288;-82
2023/03/28 11:54:22;;;;;;;0.77;0.77;;;;;;;17.66;17.64;101537.09;5013207;28;20695;-82
2023/03/28 11:56:59;;;;;;;2.53;0.75;;;;;;;17.72;18.78;101533.91;5029569;28;20041;-81
2023/03/28 12:00:11;;;;;;;3.17;0.70;;;;;;;17.89;17.88;101526.13;4998415;28;20053;-80
2023/03/28 12:03:35;;;;;;;0.52;0.52;;;;;;;18.16;19.15;101530.88;5001905;28;20497;-81
2023/03/28 12:06:37;;;;;;;0.98;0.60;;;;;;;18.26;17.26;101529.84;5018151;28;20050;-81
2023/03/28 12:09:36;;;;;;;0.55;0.43;;;;;;;18.12;19.22;101521.53;4994237;28;20431;-84
2023/03/28 12:12:29;;;;;;;3.50;0.60;;;;;;;18.34;18.69;101522.75;5010699;28;20053;-85
2023/03/28 12:15:13;;;;;;;0.60;0.60;;;;;;;18.00;20.07;101533.13;5025236;28;20050;-81
2023/03/28 12:18:12;;;;;;;0.30;0.30;;;;;;;18.30;20.03;101527.28;5008084;28;20036;-80
2023/03/28 12:21:09;;;;;;;0.63;0.50;;;;;;;18.33;17.53;101518.34;4986534;28;20046;-81
2023/03/28 12:23:56;;;;;;;0.85;0.52;;;;;;;18.57;19.94;101522.81;5018217;28;20046;-81
2023/03/28 12:26:37;;;;;;;1.85;0.75;;;;;;;18.75;19.34;101515.47;5011132;28;20524;-81
2023/03/28 12:29:24;;;;;;;1.00;0.90;;;;;;;18.29;17.21;101509.00;4994931;28;20061;-81
2023/03/28 12:31:59;;;;;;;1.00;0.70;;;;;;;18.58;19.46;101505.06;5029045;28;20057;-82
2023/03/28 12:34:30;;;;;;;0.40;0.40;;;;;;;18.34;16.98;101506.13;5012561;28;20049;-82